createdAt,value
2023-01-19T00:00:44.632Z,11.52
2023-01-19T00:03:11.124Z,8.38
2023-01-19T00:05:37.635Z,7.90
2023-01-19T00:08:04.563Z,6.32
2023-01-19T00:10:32.645Z,5.68
2023-01-19T00:12:59.492Z,6.43
2023-01-19T00:15:26.152Z,8.38
2023-01-19T00:17:52.689Z,6.35
2023-01-19T00:20:19.174Z,9.30
2023-01-19T00:22:45.731Z,8.25
2023-01-19T00:25:12.263Z,9.30
2023-01-19T00:27:40.016Z,9.05
2023-01-19T00:30:08.103Z,6.15
2023-01-19T00:32:34.652Z,8.27
2023-01-19T00:35:01.277Z,9.37
2023-01-19T00:37:27.795Z,8.15
2023-01-19T00:39:54.295Z,7.63
2023-01-19T00:42:20.784Z,8.02
2023-01-19T00:44:48.802Z,7.72
2023-01-19T00:47:15.273Z,7.57
2023-01-19T00:49:42.005Z,8.43
2023-01-19T00:52:08.621Z,8.68
2023-01-19T00:54:35.292Z,6.68
2023-01-19T00:57:02.509Z,6.25
2023-01-19T00:59:29.041Z,6.22
2023-01-19T01:01:57.291Z,7.07
2023-01-19T01:04:23.944Z,7.82
2023-01-19T01:06:50.432Z,6.65
2023-01-19T01:09:16.956Z,10.17
2023-01-19T01:11:43.567Z,4.97
2023-01-19T01:14:11.927Z,5.72
2023-01-19T01:16:38.651Z,7.90
2023-01-19T01:19:06.577Z,5.37
2023-01-19T01:21:33.151Z,11.18
2023-01-19T01:23:59.711Z,5.45
2023-01-19T01:26:27.153Z,7.88
2023-01-19T01:28:54.326Z,9.73
2023-01-19T01:31:20.938Z,6.17
2023-01-19T01:33:47.516Z,6.72
2023-01-19T01:36:15.354Z,7.32
2023-01-19T01:38:42.210Z,6.95
2023-01-19T01:41:08.886Z,5.88
2023-01-19T01:43:46.611Z,6.40
2023-01-19T01:46:13.940Z,7.03
2023-01-19T01:48:43.175Z,9.13
2023-01-19T01:51:12.591Z,6.60
2023-01-19T01:53:42.053Z,7.27
2023-01-19T01:56:12.314Z,8.15
2023-01-19T01:58:39.936Z,7.45
2023-01-19T02:01:07.573Z,5.68
2023-01-19T02:03:34.256Z,5.95
2023-01-19T02:06:04.903Z,8.73
2023-01-19T02:08:37.661Z,7.53
2023-01-19T02:11:06.749Z,5.82
2023-01-19T02:13:35.757Z,9.48
2023-01-19T02:16:07.429Z,8.23
2023-01-19T02:18:35.032Z,7.97
2023-01-19T02:21:11.011Z,7.55
2023-01-19T02:23:42.707Z,8.30
2023-01-19T02:26:12.102Z,9.75
2023-01-19T02:28:42.190Z,9.17
2023-01-19T02:31:08.909Z,5.75
2023-01-19T02:33:35.393Z,8.05
2023-01-19T02:36:02.900Z,6.97
2023-01-19T02:38:30.844Z,11.27
2023-01-19T02:41:01.243Z,5.50
2023-01-19T02:43:30.261Z,5.65
2023-01-19T02:45:57.018Z,7.28
2023-01-19T02:48:23.515Z,6.07
2023-01-19T02:50:53.196Z,5.93
2023-01-19T02:54:10.436Z,6.00
2023-01-19T02:57:10.634Z,5.60
2023-01-19T02:59:53.493Z,7.18
2023-01-19T03:02:32.238Z,7.25
2023-01-19T03:05:14.787Z,6.30
2023-01-19T03:07:49.505Z,8.23
2023-01-19T03:10:24.457Z,5.85
2023-01-19T03:12:56.610Z,8.63
2023-01-19T03:15:29.327Z,5.72
2023-01-19T03:17:58.064Z,10.90
2023-01-19T03:20:25.347Z,5.93
2023-01-19T03:22:59.305Z,5.03
2023-01-19T03:25:28.057Z,6.50
2023-01-19T03:27:57.894Z,7.30
2023-01-19T03:30:28.910Z,4.90
2023-01-19T03:33:00.059Z,6.47
2023-01-19T03:35:31.571Z,5.03
2023-01-19T03:38:00.149Z,6.72
2023-01-19T03:40:29.660Z,4.78
2023-01-19T03:43:00.374Z,5.93
2023-01-19T03:45:27.953Z,5.60
2023-01-19T03:47:55.140Z,4.78
2023-01-19T03:50:25.977Z,6.05
2023-01-19T03:53:01.940Z,6.05
2023-01-19T03:55:29.511Z,5.70
2023-01-19T03:57:57.397Z,5.55
2023-01-19T04:00:23.973Z,7.85
2023-01-19T04:02:50.564Z,6.88
2023-01-19T04:05:17.068Z,7.50
2023-01-19T04:07:43.548Z,6.43
2023-01-19T04:10:11.060Z,8.45
2023-01-19T04:12:37.670Z,10.93
2023-01-19T04:15:07.032Z,7.88
2023-01-19T04:17:33.618Z,5.30
2023-01-19T04:20:00.294Z,5.15
2023-01-19T04:22:26.815Z,5.45
2023-01-19T04:24:53.450Z,6.25
2023-01-19T04:27:19.945Z,5.30
2023-01-19T04:29:46.436Z,5.20
2023-01-19T04:32:14.492Z,6.28
2023-01-19T04:34:40.996Z,7.18
2023-01-19T04:37:07.485Z,7.53
2023-01-19T04:39:34.212Z,8.50
2023-01-19T04:42:01.147Z,9.20
2023-01-19T04:44:28.036Z,9.23
2023-01-19T04:46:54.649Z,8.93
2023-01-19T04:49:22.640Z,8.13
2023-01-19T04:51:49.197Z,11.77
2023-01-19T04:54:15.731Z,9.45
2023-01-19T04:56:42.417Z,10.18
2023-01-19T04:59:08.900Z,8.05
2023-01-19T05:01:35.528Z,6.73
2023-01-19T05:04:02.148Z,9.43
2023-01-19T05:06:29.962Z,8.68
2023-01-19T05:08:56.479Z,8.80
2023-01-19T05:11:23.001Z,8.60
2023-01-19T05:13:51.011Z,9.30
2023-01-19T05:16:18.039Z,9.40
2023-01-19T05:18:44.559Z,8.68
2023-01-19T05:21:11.092Z,10.00
2023-01-19T05:23:39.073Z,10.27
2023-01-19T05:26:05.673Z,8.63
2023-01-19T05:28:33.336Z,7.88
2023-01-19T05:31:00.126Z,9.00
2023-01-19T05:33:27.443Z,6.45
2023-01-19T05:35:54.268Z,10.63
2023-01-19T05:38:34.354Z,10.38
2023-01-19T05:41:03.127Z,8.00
2023-01-19T05:43:29.717Z,8.43
2023-01-19T05:45:56.546Z,6.60
2023-01-19T05:48:23.035Z,6.00
2023-01-19T05:50:49.655Z,6.28
2023-01-19T05:53:16.490Z,6.93
2023-01-19T05:55:43.044Z,6.97
2023-01-19T05:58:11.110Z,5.73
2023-01-19T06:00:37.587Z,8.18
2023-01-19T06:03:04.725Z,7.38
2023-01-19T06:05:31.389Z,5.68
2023-01-19T06:07:57.922Z,5.17
2023-01-19T06:10:24.586Z,5.45
2023-01-19T06:12:51.101Z,6.15
2023-01-19T06:15:19.522Z,6.80
2023-01-19T06:17:48.223Z,6.47
2023-01-19T06:20:14.937Z,7.00
2023-01-19T06:22:41.519Z,6.65
2023-01-19T06:25:08.999Z,6.10
2023-01-19T06:27:56.209Z,7.57
2023-01-19T06:30:39.110Z,6.43
2023-01-19T06:33:15.614Z,5.60
2023-01-19T06:35:43.243Z,5.40
2023-01-19T06:38:27.766Z,4.25
2023-01-19T06:40:55.941Z,6.47
2023-01-19T06:43:35.176Z,4.47
2023-01-19T06:46:03.344Z,5.05
2023-01-19T06:48:30.038Z,5.80
2023-01-19T06:50:58.616Z,5.68
2023-01-19T06:53:26.743Z,5.07
2023-01-19T06:55:53.302Z,7.97
2023-01-19T06:58:20.228Z,4.30
2023-01-19T07:00:49.472Z,4.72
2023-01-19T07:03:21.438Z,4.28
2023-01-19T07:05:51.542Z,4.13
2023-01-19T07:08:18.262Z,4.60
2023-01-19T07:11:25.618Z,6.40
2023-01-19T07:13:32.006Z,5.80
2023-01-19T07:15:58.742Z,4.90
2023-01-19T07:18:26.755Z,7.78
2023-01-19T07:20:53.318Z,4.28
2023-01-19T07:23:19.911Z,5.60
2023-01-19T07:25:46.530Z,6.67
2023-01-19T07:28:13.508Z,7.47
2023-01-19T07:30:56.895Z,8.57
2023-01-19T07:33:23.764Z,7.68
2023-01-19T07:35:52.772Z,5.93
2023-01-19T07:38:25.473Z,6.17
2023-01-19T07:40:52.015Z,9.18
2023-01-19T07:43:18.584Z,6.75
2023-01-19T07:45:45.171Z,8.93
2023-01-19T07:48:11.865Z,9.33
2023-01-19T07:50:38.410Z,7.05
2023-01-19T07:53:09.454Z,7.95
2023-01-19T07:55:36.203Z,8.13
2023-01-19T07:58:03.048Z,7.77
2023-01-19T08:00:29.762Z,8.60
2023-01-19T08:03:00.743Z,9.23
2023-01-19T08:05:28.181Z,12.25
2023-01-19T08:07:54.952Z,10.35
2023-01-19T08:10:26.496Z,8.80
2023-01-19T08:12:59.674Z,9.88
2023-01-19T08:15:26.788Z,9.10
2023-01-19T08:17:57.494Z,12.75
2023-01-19T08:20:24.817Z,8.80
2023-01-19T08:22:51.651Z,9.25
2023-01-19T08:25:18.203Z,10.55
2023-01-19T08:27:46.093Z,11.10
2023-01-19T08:30:13.409Z,10.27
2023-01-19T08:32:39.957Z,8.97
2023-01-19T08:35:07.391Z,10.77
2023-01-19T08:37:34.346Z,14.35
2023-01-19T08:40:00.949Z,14.45
2023-01-19T08:42:27.593Z,10.50
2023-01-19T08:44:58.728Z,11.23
2023-01-19T08:47:25.602Z,9.32
2023-01-19T08:49:52.194Z,11.60
2023-01-19T08:52:18.880Z,11.35
2023-01-19T08:54:45.456Z,13.57
2023-01-19T08:57:12.083Z,10.77
2023-01-19T08:59:38.675Z,13.88
2023-01-19T09:02:06.831Z,12.27
2023-01-19T09:04:33.450Z,12.32
2023-01-19T09:07:00.269Z,13.77
2023-01-19T09:09:26.787Z,12.47
2023-01-19T09:11:54.262Z,12.35
2023-01-19T09:14:20.850Z,13.82
2023-01-19T09:16:47.441Z,10.70
2023-01-19T09:19:15.341Z,11.98
2023-01-19T09:21:41.866Z,13.97
2023-01-19T09:24:08.779Z,12.60
2023-01-19T09:26:35.707Z,13.20
2023-01-19T09:29:02.257Z,14.85
2023-01-19T09:31:28.873Z,13.07
2023-01-19T09:33:55.733Z,13.27
2023-01-19T09:36:23.617Z,13.85
2023-01-19T09:38:53.463Z,12.45
2023-01-19T09:41:22.379Z,12.43
2023-01-19T09:43:52.749Z,13.43
2023-01-19T09:46:37.859Z,12.67
2023-01-19T09:49:12.452Z,16.48
2023-01-19T09:51:44.395Z,15.05
2023-01-19T09:54:15.541Z,14.07
2023-01-19T09:56:43.280Z,14.75
2023-01-19T09:59:20.104Z,11.77
2023-01-19T10:02:01.468Z,16.48
2023-01-19T10:04:31.844Z,12.18
2023-01-19T10:07:31.305Z,16.75
2023-01-19T10:10:09.242Z,14.40
2023-01-19T10:12:43.577Z,15.17
2023-01-19T10:15:20.442Z,19.58
2023-01-19T10:17:58.691Z,18.27
2023-01-19T10:20:29.398Z,18.17
2023-01-19T10:22:59.211Z,18.88
2023-01-19T10:25:27.317Z,20.63
2023-01-19T10:27:53.956Z,14.73
2023-01-19T10:30:24.356Z,19.70
2023-01-19T10:32:51.634Z,19.60
2023-01-19T10:35:20.295Z,18.23
2023-01-19T10:37:47.279Z,20.13
2023-01-19T10:40:26.626Z,19.98
2023-01-19T10:42:53.538Z,18.42
2023-01-19T10:45:23.759Z,21.45
2023-01-19T10:47:50.568Z,23.40
2023-01-19T10:50:24.650Z,18.90
2023-01-19T10:52:52.762Z,17.30
2023-01-19T10:55:27.223Z,18.48
2023-01-19T10:57:53.975Z,19.45
2023-01-19T11:00:33.337Z,21.83
2023-01-19T11:03:00.900Z,19.90
2023-01-19T11:05:29.691Z,19.45
2023-01-19T11:07:56.389Z,19.23
2023-01-19T11:10:26.110Z,21.08
2023-01-19T11:12:59.656Z,16.92
2023-01-19T11:15:31.751Z,17.80
2023-01-19T11:17:58.881Z,21.27
2023-01-19T11:20:28.485Z,27.23
2023-01-19T11:23:06.418Z,21.88
2023-01-19T11:25:36.156Z,22.00
2023-01-19T11:28:03.406Z,24.30
2023-01-19T11:30:30.461Z,18.13
2023-01-19T11:32:57.196Z,18.73
2023-01-19T11:35:36.875Z,17.25
2023-01-19T11:38:18.235Z,24.65
2023-01-19T11:40:53.549Z,23.20
2023-01-19T11:43:21.494Z,21.95
2023-01-19T11:45:48.181Z,18.75
2023-01-19T11:48:23.349Z,17.20
2023-01-19T11:50:50.330Z,22.30
2023-01-19T11:53:20.713Z,19.67
2023-01-19T11:55:54.747Z,21.52
2023-01-19T11:58:21.574Z,22.02
2023-01-19T12:00:53.170Z,17.38
2023-01-19T12:03:24.402Z,22.20
2023-01-19T12:05:55.452Z,19.57
2023-01-19T12:08:25.211Z,22.77
2023-01-19T12:10:56.062Z,18.17
2023-01-19T12:13:27.340Z,18.13
2023-01-19T12:15:58.321Z,19.48
2023-01-19T12:18:30.315Z,30.73
2023-01-19T12:20:56.883Z,21.90
2023-01-19T12:23:32.132Z,21.17
2023-01-19T12:26:28.595Z,16.98
2023-01-19T12:29:01.938Z,18.08
2023-01-19T12:31:28.734Z,18.73
2023-01-19T12:33:55.492Z,19.25
2023-01-19T12:36:36.183Z,19.95
2023-01-19T12:39:06.133Z,24.10
2023-01-19T12:41:36.500Z,18.27
2023-01-19T12:44:31.084Z,19.23
2023-01-19T12:46:58.604Z,19.08
2023-01-19T12:49:27.907Z,18.63
2023-01-19T12:52:11.637Z,20.10
2023-01-19T12:54:42.160Z,19.88
2023-01-19T12:57:20.779Z,18.43
2023-01-19T12:59:54.837Z,16.50
2023-01-19T13:02:52.350Z,17.95
2023-01-19T13:05:38.184Z,14.70
2023-01-19T13:08:21.920Z,21.73
2023-01-19T13:11:19.220Z,16.53
2023-01-19T13:14:29.033Z,14.05
2023-01-19T13:17:02.283Z,19.60
2023-01-19T13:19:54.706Z,15.02
2023-01-19T13:23:11.786Z,20.20
2023-01-19T13:25:39.029Z,15.93
2023-01-19T13:28:13.189Z,19.63
2023-01-19T13:30:55.560Z,18.33
2023-01-19T13:33:25.137Z,19.90
2023-01-19T13:35:54.449Z,19.40
2023-01-19T13:38:23.004Z,21.90
2023-01-19T13:40:49.783Z,15.15
2023-01-19T13:43:18.989Z,19.67
2023-01-19T13:45:53.282Z,16.75
2023-01-19T13:48:22.275Z,13.75
2023-01-19T13:51:00.995Z,18.63
2023-01-19T13:53:28.184Z,15.13
2023-01-19T13:56:17.154Z,14.68
2023-01-19T13:58:43.924Z,15.13
2023-01-19T14:01:22.564Z,19.75
2023-01-19T14:03:49.481Z,21.00
2023-01-19T14:06:22.238Z,15.77
2023-01-19T14:09:05.934Z,16.25
2023-01-19T14:11:33.295Z,20.17
2023-01-19T14:13:59.880Z,24.85
2023-01-19T14:16:27.892Z,19.53
2023-01-19T14:18:59.864Z,24.83
2023-01-19T14:21:38.435Z,20.15
2023-01-19T14:24:20.176Z,14.68
2023-01-19T14:26:48.312Z,17.65
2023-01-19T14:29:23.320Z,22.07
2023-01-19T14:31:52.995Z,21.77
2023-01-19T14:34:30.329Z,16.58
2023-01-19T14:36:57.747Z,19.05
2023-01-19T14:39:27.175Z,17.63
2023-01-19T14:41:57.502Z,18.60
2023-01-19T14:44:28.262Z,18.73
2023-01-19T14:46:57.183Z,15.10
2023-01-19T14:49:30.197Z,18.15
2023-01-19T14:51:57.418Z,17.88
2023-01-19T14:54:30.752Z,19.77
2023-01-19T14:56:57.598Z,20.73
2023-01-19T14:59:24.249Z,14.68
2023-01-19T15:01:50.962Z,22.83
2023-01-19T15:04:18.850Z,18.08
2023-01-19T15:06:45.964Z,16.43
2023-01-19T15:09:13.486Z,14.32
2023-01-19T15:11:41.043Z,17.00
2023-01-19T15:14:13.452Z,15.32
2023-01-19T15:16:40.675Z,17.95
2023-01-19T15:19:11.007Z,17.67
2023-01-19T15:21:39.149Z,19.88
2023-01-19T15:24:06.199Z,12.55
2023-01-19T15:26:32.745Z,15.18
2023-01-19T15:28:59.403Z,17.42
2023-01-19T15:31:26.527Z,12.90
2023-01-19T15:33:53.202Z,15.18
2023-01-19T15:36:21.644Z,14.93
2023-01-19T15:38:49.832Z,14.60
2023-01-19T15:41:23.350Z,13.45
2023-01-19T15:43:50.239Z,12.83
2023-01-19T15:46:20.168Z,13.88
2023-01-19T15:48:46.804Z,12.65
2023-01-19T15:51:14.112Z,14.98
2023-01-19T15:53:40.930Z,14.40
2023-01-19T15:56:14.497Z,16.43
2023-01-19T15:58:41.193Z,15.00
2023-01-19T16:01:12.825Z,14.88
2023-01-19T16:03:39.435Z,19.38
2023-01-19T16:06:06.214Z,15.18
2023-01-19T16:08:32.745Z,12.13
2023-01-19T16:11:03.732Z,15.57
2023-01-19T16:13:31.880Z,14.60
2023-01-19T16:16:02.218Z,20.52
2023-01-19T16:18:28.942Z,16.85
2023-01-19T16:21:25.414Z,15.20
2023-01-19T16:23:52.009Z,12.80
2023-01-19T16:26:27.423Z,14.57
2023-01-19T16:28:58.102Z,12.88
2023-01-19T16:31:25.137Z,15.38
2023-01-19T16:33:51.697Z,16.23
2023-01-19T16:36:20.390Z,16.55
2023-01-19T16:39:07.897Z,14.23
2023-01-19T16:41:49.681Z,15.68
2023-01-19T16:45:00.225Z,11.93
2023-01-19T16:47:50.783Z,14.60
2023-01-19T16:51:16.847Z,16.52
2023-01-19T16:53:59.457Z,12.93
2023-01-19T16:56:35.616Z,14.63
2023-01-19T16:59:04.363Z,14.55
2023-01-19T17:01:32.771Z,16.33
2023-01-19T17:04:03.047Z,15.40
2023-01-19T17:06:30.608Z,14.75
2023-01-19T17:12:58.708Z,13.95
2023-01-19T17:15:25.800Z,14.67
2023-01-19T17:20:50.507Z,13.93
2023-01-19T17:23:17.349Z,15.45
2023-01-19T17:25:51.624Z,14.15
2023-01-19T17:28:18.203Z,12.03
2023-01-19T17:30:47.912Z,11.70
2023-01-19T17:33:14.464Z,11.55
2023-01-19T17:35:42.367Z,12.43
2023-01-19T17:38:08.878Z,12.27
2023-01-19T17:40:38.167Z,11.33
2023-01-19T17:43:04.811Z,14.05
2023-01-19T17:45:34.757Z,13.73
2023-01-19T17:48:02.049Z,11.95
2023-01-19T17:50:28.993Z,12.93
2023-01-19T17:52:57.274Z,12.03
2023-01-19T17:55:23.897Z,14.32
2023-01-19T17:57:50.519Z,11.27
2023-01-19T18:00:18.228Z,11.20
2023-01-19T18:02:44.808Z,17.73
2023-01-19T18:05:11.489Z,10.80
2023-01-19T18:07:38.231Z,11.00
2023-01-19T18:10:07.755Z,13.50
2023-01-19T18:12:34.616Z,12.07
2023-01-19T18:15:01.184Z,11.95
2023-01-19T18:17:27.667Z,13.30
2023-01-19T18:19:54.246Z,17.15
2023-01-19T18:22:20.861Z,13.43
2023-01-19T18:24:47.380Z,14.70
2023-01-19T18:27:15.663Z,14.60
2023-01-19T18:29:42.313Z,13.57
2023-01-19T18:32:09.473Z,14.77
2023-01-19T18:34:36.633Z,15.68
2023-01-19T18:37:03.383Z,16.58
2023-01-19T18:39:30.072Z,12.38
2023-01-19T18:41:57.383Z,11.93
2023-01-19T18:44:25.524Z,16.77
2023-01-19T18:46:52.101Z,14.85
2023-01-19T18:49:20.998Z,10.35
2023-01-19T18:51:47.556Z,12.52
2023-01-19T18:54:15.133Z,12.47
2023-01-19T18:57:46.411Z,14.10
2023-01-19T19:00:14.722Z,13.07
2023-01-19T19:02:43.938Z,10.70
2023-01-19T19:05:23.270Z,12.15
2023-01-19T19:07:50.481Z,9.13
2023-01-19T19:10:17.488Z,15.73
2023-01-19T19:12:45.092Z,12.27
2023-01-19T19:15:13.332Z,13.73
2023-01-19T19:17:50.407Z,16.02
2023-01-19T19:20:18.071Z,13.87
2023-01-19T19:22:44.671Z,10.30
2023-01-19T19:25:11.515Z,10.02
2023-01-19T19:31:22.642Z,11.95
2023-01-19T19:34:10.015Z,11.97
2023-01-19T19:36:36.629Z,11.57
2023-01-19T19:39:03.679Z,10.15
2023-01-19T19:41:30.922Z,11.07
2023-01-19T19:43:58.194Z,13.15
2023-01-19T19:46:27.292Z,10.90
2023-01-19T19:48:54.589Z,10.95
2023-01-19T19:51:24.124Z,10.20
2023-01-19T19:53:52.164Z,10.57
2023-01-19T19:56:20.643Z,14.50
2023-01-19T19:58:48.030Z,14.07
2023-01-19T20:01:17.152Z,10.85
2023-01-19T20:03:46.349Z,9.77
2023-01-19T20:06:14.991Z,12.95
2023-01-19T20:08:41.694Z,11.32
2023-01-19T20:11:10.663Z,11.77
2023-01-19T20:13:38.657Z,11.27
2023-01-19T20:16:07.509Z,8.57
2023-01-19T20:18:34.468Z,9.88
2023-01-19T20:21:11.129Z,8.73
2023-01-19T20:23:38.127Z,13.50
2023-01-19T20:26:06.578Z,10.10
2023-01-19T20:28:34.693Z,8.25
2023-01-19T20:31:13.880Z,9.23
2023-01-19T20:33:44.042Z,7.75
2023-01-19T20:36:14.622Z,8.30
2023-01-19T20:38:42.294Z,13.73
2023-01-19T20:41:11.092Z,10.25
2023-01-19T20:43:38.223Z,10.38
2023-01-19T20:46:05.436Z,9.93
2023-01-19T20:48:32.497Z,11.65
2023-01-19T20:50:59.370Z,8.85
2023-01-19T20:53:29.455Z,9.38
2023-01-19T20:55:56.261Z,8.63
2023-01-19T20:58:23.853Z,13.90
2023-01-19T21:00:52.246Z,11.15
2023-01-19T21:03:19.206Z,8.50
2023-01-19T21:05:49.013Z,10.65
2023-01-19T21:08:16.386Z,9.15
2023-01-19T21:10:44.832Z,10.57
2023-01-19T21:13:11.569Z,6.30
2023-01-19T21:15:38.822Z,14.13
2023-01-19T21:18:05.445Z,9.52
2023-01-19T21:20:32.172Z,15.10
2023-01-19T21:23:00.244Z,9.57
2023-01-19T21:25:26.938Z,9.45
2023-01-19T21:27:55.499Z,8.85
2023-01-19T21:30:22.180Z,9.30
2023-01-19T21:32:49.035Z,8.65
2023-01-19T21:35:16.391Z,6.70
2023-01-19T21:37:43.037Z,10.23
2023-01-19T21:40:12.291Z,10.38
2023-01-19T21:42:39.061Z,8.13
2023-01-19T21:45:08.323Z,10.70
2023-01-19T21:47:36.140Z,9.83
2023-01-19T21:50:03.499Z,10.27
2023-01-19T21:52:30.067Z,10.52
2023-01-19T21:54:56.621Z,13.02
2023-01-19T21:57:23.640Z,14.13
2023-01-19T21:59:51.946Z,11.40
2023-01-19T22:02:37.153Z,10.63
2023-01-19T22:05:05.769Z,12.60
2023-01-19T22:07:32.524Z,14.32
2023-01-19T22:10:00.363Z,11.18
2023-01-19T22:12:29.510Z,8.67
2023-01-19T22:14:56.489Z,12.07
2023-01-19T22:17:24.497Z,11.85
2023-01-19T22:19:51.223Z,10.18
2023-01-19T22:22:17.750Z,12.32
2023-01-19T22:24:44.430Z,9.80
2023-01-19T22:27:11.177Z,12.85
2023-01-19T22:29:37.710Z,13.45
2023-01-19T22:32:05.247Z,11.32
2023-01-19T22:34:33.645Z,11.70
2023-01-19T22:37:00.856Z,11.13
2023-01-19T22:39:27.540Z,9.02
2023-01-19T22:41:54.373Z,12.45
2023-01-19T22:44:21.997Z,11.50
2023-01-19T22:46:51.204Z,10.27
2023-01-19T22:49:18.467Z,15.65
2023-01-19T22:51:47.167Z,12.32
2023-01-19T22:54:14.098Z,12.85
2023-01-19T22:56:41.370Z,14.85
2023-01-19T22:59:08.749Z,12.13
2023-01-19T23:01:37.347Z,12.82
2023-01-19T23:04:05.604Z,17.25
2023-01-19T23:06:35.348Z,16.95
2023-01-19T23:09:06.021Z,16.23
2023-01-19T23:11:35.969Z,12.60
2023-01-19T23:14:03.614Z,17.52
2023-01-19T23:16:32.222Z,14.52
2023-01-19T23:18:59.276Z,13.07
2023-01-19T23:21:30.453Z,15.45
2023-01-19T23:23:58.995Z,16.67
2023-01-19T23:26:28.013Z,17.40
2023-01-19T23:28:56.803Z,18.73
2023-01-19T23:31:25.554Z,16.13
2023-01-19T23:33:53.889Z,16.08
2023-01-19T23:36:22.852Z,13.30
2023-01-19T23:38:53.783Z,17.50
2023-01-19T23:41:21.264Z,13.63
2023-01-19T23:43:49.730Z,15.35
2023-01-19T23:46:18.321Z,13.38
2023-01-19T23:48:45.240Z,18.30
2023-01-19T23:51:14.200Z,15.32
2023-01-19T23:53:41.137Z,14.63
2023-01-19T23:56:12.258Z,16.27
2023-01-19T23:58:39.543Z,15.52
